createdAt,value
2022-10-12T00:02:42.287Z,6.88
2022-10-12T00:05:48.883Z,6.60
2022-10-12T00:08:56.493Z,6.22
2022-10-12T00:12:02.450Z,6.63
2022-10-12T00:15:11.965Z,6.60
2022-10-12T00:18:20.919Z,6.93
2022-10-12T00:21:28.491Z,5.95
2022-10-12T00:24:37.467Z,6.22
2022-10-12T00:27:49.417Z,6.63
2022-10-12T00:31:01.629Z,6.43
2022-10-12T00:34:10.461Z,5.90
2022-10-12T00:37:23.276Z,6.40
2022-10-12T00:40:32.823Z,6.45
2022-10-12T00:43:42.843Z,6.50
2022-10-12T00:46:57.459Z,6.40
2022-10-12T00:50:14.275Z,5.75
2022-10-12T00:53:31.613Z,5.40
2022-10-12T00:56:44.841Z,5.85
2022-10-12T00:59:56.721Z,5.60
2022-10-12T01:03:13.146Z,6.18
2022-10-12T01:06:25.264Z,6.95
2022-10-12T01:09:35.722Z,6.38
2022-10-12T01:12:46.461Z,6.70
2022-10-12T01:16:01.710Z,5.50
2022-10-12T01:19:25.717Z,6.30
2022-10-12T01:22:39.433Z,5.90
2022-10-12T01:26:02.729Z,5.50
2022-10-12T01:29:28.198Z,5.87
2022-10-12T01:32:40.124Z,6.77
2022-10-12T01:35:55.934Z,6.53
2022-10-12T01:39:09.125Z,6.10
2022-10-12T01:42:20.715Z,5.93
2022-10-12T01:45:27.806Z,6.28
2022-10-12T01:48:36.469Z,6.65
2022-10-12T01:51:59.627Z,6.17
2022-10-12T01:55:25.608Z,6.45
2022-10-12T01:58:45.286Z,5.38
2022-10-12T02:02:00.415Z,6.10
2022-10-12T02:05:14.610Z,5.82
2022-10-12T02:08:26.897Z,6.50
2022-10-12T02:11:35.229Z,7.73
2022-10-12T02:14:46.101Z,5.87
2022-10-12T02:17:54.967Z,6.13
2022-10-12T02:21:03.105Z,6.30
2022-10-12T02:24:13.874Z,6.23
2022-10-12T02:30:55.258Z,7.17
2022-10-12T02:37:47.561Z,6.97
2022-10-12T02:41:03.619Z,7.00
2022-10-12T02:44:17.906Z,7.90
2022-10-12T02:47:34.776Z,7.33
2022-10-12T02:54:13.794Z,7.23
2022-10-12T03:01:17.310Z,8.40
2022-10-12T03:04:34.302Z,7.93
2022-10-12T03:08:00.229Z,7.43
2022-10-12T03:15:17.211Z,7.63
2022-10-12T03:18:32.492Z,7.87
2022-10-12T03:22:10.105Z,7.87
2022-10-12T03:25:31.248Z,7.67
2022-10-12T03:32:40.553Z,8.90
2022-10-12T03:35:58.207Z,8.10
2022-10-12T03:39:36.506Z,7.47
2022-10-12T03:42:45.028Z,7.97
2022-10-12T03:46:05.501Z,7.90
2022-10-12T03:49:16.170Z,7.22
2022-10-12T03:52:23.795Z,8.03
2022-10-12T03:59:12.484Z,6.80
2022-10-12T04:02:40.223Z,7.50
2022-10-12T04:06:17.889Z,6.67
2022-10-12T04:09:29.607Z,7.73
2022-10-12T04:13:01.963Z,6.73
2022-10-12T04:16:10.055Z,6.35
2022-10-12T04:19:24.269Z,6.47
2022-10-12T04:22:30.709Z,6.80
2022-10-12T04:25:36.928Z,7.30
2022-10-12T04:28:42.584Z,6.97
2022-10-12T04:31:49.752Z,6.43
2022-10-12T04:35:03.035Z,7.40
2022-10-12T04:38:08.756Z,8.27
2022-10-12T04:41:16.046Z,7.73
2022-10-12T04:44:22.818Z,6.57
2022-10-12T04:47:29.210Z,7.20
2022-10-12T04:50:38.535Z,8.70
2022-10-12T04:53:47.463Z,7.45
2022-10-12T04:56:53.090Z,7.53
2022-10-12T05:00:02.865Z,7.80
2022-10-12T05:03:09.644Z,8.27
2022-10-12T05:06:14.781Z,8.73
2022-10-12T05:09:18.211Z,8.30
2022-10-12T05:12:21.054Z,7.93
2022-10-12T05:15:23.828Z,7.87
2022-10-12T05:18:26.660Z,7.57
2022-10-12T05:21:30.766Z,8.95
2022-10-12T05:24:33.786Z,7.37
2022-10-12T05:27:36.587Z,8.13
2022-10-12T05:30:40.386Z,8.10
2022-10-12T05:33:42.999Z,8.23
2022-10-12T05:36:47.038Z,7.87
2022-10-12T05:39:49.981Z,8.25
2022-10-12T05:42:52.591Z,8.48
2022-10-12T05:45:55.205Z,8.27
2022-10-12T05:49:00.569Z,9.27
2022-10-12T05:52:04.765Z,9.67
2022-10-12T05:55:08.563Z,8.50
2022-10-12T05:58:11.159Z,9.02
2022-10-12T06:01:14.974Z,8.05
2022-10-12T06:04:17.953Z,10.00
2022-10-12T06:07:21.979Z,8.90
2022-10-12T06:10:29.115Z,8.68
2022-10-12T06:13:32.774Z,9.27
2022-10-12T06:16:35.453Z,9.07
2022-10-12T06:19:38.278Z,8.32
2022-10-12T06:22:42.252Z,8.40
2022-10-12T06:25:46.942Z,8.43
2022-10-12T06:28:49.590Z,8.63
2022-10-12T06:31:54.135Z,8.13
2022-10-12T06:34:56.754Z,9.63
2022-10-12T06:38:00.908Z,9.73
2022-10-12T06:41:03.942Z,9.25
2022-10-12T06:44:06.941Z,10.00
2022-10-12T06:47:09.586Z,9.77
2022-10-12T06:50:12.886Z,9.60
2022-10-12T06:53:17.004Z,10.05
2022-10-12T06:56:19.996Z,9.95
2022-10-12T06:59:22.757Z,9.48
2022-10-12T07:02:25.331Z,9.43
2022-10-12T07:05:28.228Z,9.68
2022-10-12T07:08:32.359Z,9.25
2022-10-12T07:11:35.137Z,10.18
2022-10-12T07:14:38.161Z,9.60
2022-10-12T07:17:41.230Z,9.90
2022-10-12T07:20:44.033Z,9.48
2022-10-12T07:23:47.993Z,10.10
2022-10-12T07:26:51.008Z,9.68
2022-10-12T07:29:54.803Z,10.70
2022-10-12T07:32:57.462Z,9.77
2022-10-12T07:36:20.873Z,9.45
2022-10-12T07:39:24.458Z,10.07
2022-10-12T07:42:27.065Z,9.82
2022-10-12T07:45:29.707Z,10.93
2022-10-12T07:48:32.784Z,9.80
2022-10-12T07:51:35.516Z,11.15
2022-10-12T07:54:39.492Z,10.65
2022-10-12T07:57:42.187Z,10.25
2022-10-12T08:00:44.895Z,11.55
2022-10-12T08:03:47.591Z,11.18
2022-10-12T08:06:50.226Z,10.50
2022-10-12T08:09:54.903Z,10.73
2022-10-12T08:12:57.518Z,11.35
2022-10-12T08:16:00.475Z,11.00
2022-10-12T08:19:03.082Z,11.68
2022-10-12T08:22:05.771Z,10.88
2022-10-12T08:25:10.799Z,10.65
2022-10-12T08:28:13.407Z,11.57
2022-10-12T08:31:17.828Z,10.85
2022-10-12T08:34:20.915Z,11.23
2022-10-12T08:37:23.539Z,11.60
2022-10-12T08:40:33.611Z,10.60
2022-10-12T08:43:55.015Z,10.43
2022-10-12T08:47:01.144Z,10.38
2022-10-12T08:50:05.977Z,10.13
2022-10-12T08:53:15.400Z,10.57
2022-10-12T08:56:20.558Z,10.10
2022-10-12T08:59:23.550Z,9.63
2022-10-12T09:02:51.683Z,9.55
2022-10-12T09:06:04.405Z,9.50
2022-10-12T09:09:17.885Z,8.63
2022-10-12T09:12:34.361Z,7.22
2022-10-12T09:15:43.953Z,8.20
2022-10-12T09:18:50.545Z,9.55
2022-10-12T09:21:53.298Z,8.52
2022-10-12T09:24:58.205Z,8.80
2022-10-12T09:28:19.440Z,8.77
2022-10-12T09:31:34.734Z,7.57
2022-10-12T09:34:37.829Z,7.50
2022-10-12T09:37:56.704Z,7.20
2022-10-12T09:41:05.004Z,7.05
2022-10-12T09:44:20.894Z,7.43
2022-10-12T09:47:31.237Z,7.05
2022-10-12T09:50:45.204Z,6.47
2022-10-12T09:54:06.422Z,7.60
2022-10-12T09:57:22.862Z,7.18
2022-10-12T10:00:30.908Z,6.60
2022-10-12T10:03:33.993Z,7.22
2022-10-12T10:06:37.537Z,6.68
2022-10-12T10:09:40.312Z,7.43
2022-10-12T10:12:52.488Z,6.95
2022-10-12T10:16:06.949Z,7.30
2022-10-12T10:19:20.312Z,7.43
2022-10-12T10:22:24.154Z,6.70
2022-10-12T10:25:27.265Z,7.57
2022-10-12T10:28:31.739Z,8.13
2022-10-12T10:31:35.833Z,7.95
2022-10-12T10:34:38.992Z,7.47
2022-10-12T10:37:45.589Z,7.95
2022-10-12T10:40:52.615Z,6.70
2022-10-12T10:43:56.062Z,8.23
2022-10-12T10:47:02.998Z,6.47
2022-10-12T10:50:21.837Z,7.18
2022-10-12T10:53:26.737Z,7.00
2022-10-12T10:56:31.986Z,7.32
2022-10-12T10:59:45.022Z,6.70
2022-10-12T11:02:52.300Z,6.78
2022-10-12T11:05:59.141Z,7.10
2022-10-12T11:09:06.083Z,6.85
2022-10-12T11:12:14.458Z,6.80
2022-10-12T11:15:25.050Z,7.28
2022-10-12T11:18:38.992Z,6.78
2022-10-12T11:21:48.358Z,6.95
2022-10-12T11:24:55.742Z,6.57
2022-10-12T11:27:58.478Z,7.15
2022-10-12T11:31:02.369Z,7.43
2022-10-12T11:34:13.941Z,6.65
2022-10-12T11:37:20.803Z,6.15
2022-10-12T11:40:55.497Z,5.82
2022-10-12T11:43:58.408Z,5.95
2022-10-12T11:47:05.696Z,5.95
2022-10-12T11:50:25.954Z,6.28
2022-10-12T11:53:35.774Z,5.07
2022-10-12T11:56:43.078Z,5.90
2022-10-12T11:59:49.381Z,5.38
2022-10-12T12:02:58.190Z,5.68
2022-10-12T12:06:34.405Z,5.40
2022-10-12T12:09:47.970Z,5.00
2022-10-12T12:13:18.249Z,5.22
2022-10-12T12:16:34.350Z,5.43
2022-10-12T12:19:39.804Z,5.18
2022-10-12T12:22:50.569Z,5.57
2022-10-12T12:26:13.149Z,6.15
2022-10-12T12:29:27.088Z,5.10
2022-10-12T12:32:44.056Z,5.88
2022-10-12T12:35:55.652Z,5.47
2022-10-12T12:38:59.029Z,5.43
2022-10-12T12:42:05.045Z,4.75
2022-10-12T12:45:42.188Z,4.65
2022-10-12T12:49:04.058Z,4.93
2022-10-12T12:52:12.125Z,5.57
2022-10-12T12:55:50.247Z,6.40
2022-10-12T12:59:12.910Z,5.43
2022-10-12T13:02:47.963Z,5.32
2022-10-12T13:06:28.555Z,5.05
2022-10-12T13:09:48.281Z,5.25
2022-10-12T13:13:08.662Z,5.07
2022-10-12T13:16:57.539Z,5.07
2022-10-12T13:19:49.457Z,4.72
2022-10-12T13:22:54.969Z,5.25
2022-10-12T13:26:02.209Z,5.28
2022-10-12T13:29:16.426Z,4.70
2022-10-12T13:32:30.930Z,4.63
2022-10-12T13:35:37.838Z,4.60
2022-10-12T13:38:40.544Z,4.78
2022-10-12T13:41:44.210Z,4.63
2022-10-12T13:44:49.161Z,4.68
2022-10-12T13:47:53.138Z,4.47
2022-10-12T13:50:57.757Z,4.35
2022-10-12T13:54:00.374Z,4.85
2022-10-12T13:57:05.643Z,3.50
2022-10-12T14:00:18.246Z,4.43
2022-10-12T14:03:26.985Z,4.30
2022-10-12T14:06:32.594Z,4.05
2022-10-12T14:09:42.421Z,3.92
2022-10-12T14:12:47.245Z,3.55
2022-10-12T14:15:50.257Z,4.25
2022-10-12T14:18:54.299Z,3.90
2022-10-12T14:21:58.607Z,3.20
2022-10-12T14:25:11.712Z,3.20
2022-10-12T14:28:32.684Z,3.30
2022-10-12T14:31:52.067Z,3.05
2022-10-12T14:35:12.172Z,2.97
2022-10-12T14:38:38.230Z,3.25
2022-10-12T14:41:49.972Z,2.97
2022-10-12T14:44:52.990Z,3.33
2022-10-12T14:47:56.611Z,3.25
2022-10-12T14:51:00.604Z,2.95
2022-10-12T14:54:05.330Z,2.75
2022-10-12T14:57:14.720Z,3.35
2022-10-12T15:00:19.634Z,3.63
2022-10-12T15:03:22.345Z,3.47
2022-10-12T15:06:26.344Z,3.60
2022-10-12T15:09:28.986Z,3.30
2022-10-12T15:12:32.055Z,4.40
2022-10-12T15:15:40.318Z,3.75
2022-10-12T15:18:42.902Z,4.32
2022-10-12T15:21:47.862Z,4.45
2022-10-12T15:24:51.215Z,3.92
2022-10-12T15:27:53.867Z,4.07
2022-10-12T15:31:17.011Z,3.97
2022-10-12T15:34:20.605Z,3.72
2022-10-12T15:40:33.962Z,3.25
2022-10-12T15:43:38.265Z,4.05
2022-10-12T15:46:45.332Z,3.67
2022-10-12T15:49:48.324Z,3.85
2022-10-12T15:52:51.040Z,4.00
2022-10-12T15:55:56.409Z,3.63
2022-10-12T15:58:59.074Z,3.33
2022-10-12T16:02:01.741Z,2.83
2022-10-12T16:05:04.977Z,2.92
2022-10-12T16:08:07.889Z,2.88
2022-10-12T16:11:16.073Z,3.45
2022-10-12T16:14:18.745Z,3.53
2022-10-12T16:17:21.347Z,3.60
2022-10-12T16:20:24.558Z,3.17
2022-10-12T16:23:30.301Z,3.42
2022-10-12T16:26:34.629Z,3.03
2022-10-12T16:29:37.347Z,3.13
2022-10-12T16:32:40.025Z,3.95
2022-10-12T16:35:42.881Z,3.67
2022-10-12T16:38:45.828Z,3.53
2022-10-12T16:41:49.823Z,3.55
2022-10-12T16:44:52.429Z,3.47
2022-10-12T16:47:55.051Z,3.33
2022-10-12T16:50:57.641Z,3.15
2022-10-12T16:54:00.774Z,3.40
2022-10-12T16:57:05.279Z,3.33
2022-10-12T17:00:10.732Z,3.00
2022-10-12T17:03:13.794Z,3.40
2022-10-12T17:06:16.469Z,4.05
2022-10-12T17:09:19.140Z,3.80
2022-10-12T17:12:23.555Z,3.67
2022-10-12T17:15:26.315Z,3.67
2022-10-12T17:18:28.899Z,3.78
2022-10-12T17:21:31.662Z,3.47
2022-10-12T17:24:37.271Z,4.18
2022-10-12T17:27:41.236Z,3.90
2022-10-12T17:30:44.121Z,4.28
2022-10-12T17:33:46.825Z,4.05
2022-10-12T17:36:50.712Z,3.92
2022-10-12T17:39:53.701Z,3.83
2022-10-12T17:42:57.678Z,3.75
2022-10-12T17:46:00.354Z,3.80
2022-10-12T17:49:03.747Z,4.57
2022-10-12T17:52:06.558Z,4.97
2022-10-12T17:55:29.504Z,4.70
2022-10-12T17:58:34.386Z,4.40
2022-10-12T18:01:38.493Z,4.38
2022-10-12T18:04:41.137Z,4.10
2022-10-12T18:07:43.805Z,4.45
2022-10-12T18:10:46.419Z,4.18
2022-10-12T18:13:51.834Z,4.82
2022-10-12T18:16:54.448Z,4.20
2022-10-12T18:19:57.100Z,4.30
2022-10-12T18:22:59.730Z,4.07
2022-10-12T18:26:04.230Z,4.20
2022-10-12T18:29:08.217Z,4.20
2022-10-12T18:32:11.356Z,4.45
2022-10-12T18:35:14.342Z,4.43
2022-10-12T18:38:17.406Z,4.57
2022-10-12T18:41:22.872Z,4.78
2022-10-12T18:44:26.866Z,4.45
2022-10-12T18:47:29.521Z,5.03
2022-10-12T18:50:32.253Z,4.65
2022-10-12T18:53:36.009Z,4.57
2022-10-12T18:56:38.658Z,4.80
2022-10-12T18:59:43.035Z,4.68
2022-10-12T19:02:45.647Z,4.80
2022-10-12T19:05:48.269Z,5.05
2022-10-12T19:08:51.343Z,4.65
2022-10-12T19:11:53.985Z,4.68
2022-10-12T19:14:58.209Z,6.30
2022-10-12T19:18:01.197Z,5.07
2022-10-12T19:21:06.305Z,5.60
2022-10-12T19:24:12.033Z,5.22
2022-10-12T19:27:14.686Z,4.80
2022-10-12T19:30:18.843Z,4.95
2022-10-12T19:33:21.534Z,5.43
2022-10-12T19:36:24.314Z,5.05
2022-10-12T19:39:27.192Z,4.60
2022-10-12T19:42:29.838Z,5.25
2022-10-12T19:45:38.674Z,5.18
2022-10-12T19:48:42.825Z,5.13
2022-10-12T19:51:45.661Z,5.03
2022-10-12T19:54:48.261Z,5.80
2022-10-12T19:57:50.934Z,4.78
2022-10-12T20:01:01.304Z,4.90
2022-10-12T20:04:07.057Z,5.10
2022-10-12T20:07:09.692Z,5.57
2022-10-12T20:10:12.331Z,4.80
2022-10-12T20:13:15.075Z,5.32
2022-10-12T20:16:20.405Z,5.00
2022-10-12T20:19:23.058Z,4.85
2022-10-12T20:22:25.653Z,6.32
2022-10-12T20:25:28.349Z,6.70
2022-10-12T20:28:31.096Z,5.53
2022-10-12T20:31:35.258Z,5.95
2022-10-12T20:34:37.925Z,6.00
2022-10-12T20:37:40.537Z,6.20
2022-10-12T20:40:43.225Z,5.90
2022-10-12T20:43:46.108Z,5.60
2022-10-12T20:46:51.705Z,5.82
2022-10-12T20:49:54.730Z,6.43
2022-10-12T20:52:57.347Z,5.93
2022-10-12T20:56:00.013Z,6.90
2022-10-12T20:59:02.881Z,6.32
2022-10-12T21:02:06.862Z,6.38
2022-10-12T21:05:10.298Z,7.18
2022-10-12T21:08:12.926Z,6.90
2022-10-12T21:11:15.572Z,7.28
2022-10-12T21:14:18.276Z,7.45
2022-10-12T21:17:22.255Z,7.10
2022-10-12T21:20:24.937Z,6.65
2022-10-12T21:23:28.422Z,6.20
2022-10-12T21:26:31.839Z,6.15
2022-10-12T21:29:34.453Z,6.90
2022-10-12T21:32:38.439Z,6.03
2022-10-12T21:35:41.316Z,6.05
2022-10-12T21:38:44.701Z,6.93
2022-10-12T21:41:47.354Z,6.20
2022-10-12T21:44:50.166Z,7.10
2022-10-12T21:47:54.094Z,6.05
2022-10-12T21:50:57.014Z,6.40
2022-10-12T21:53:59.713Z,7.05
2022-10-12T21:57:02.389Z,6.47
2022-10-12T22:00:06.403Z,6.85
2022-10-12T22:03:10.424Z,6.30
2022-10-12T22:06:14.418Z,5.63
2022-10-12T22:09:19.130Z,5.93
2022-10-12T22:12:21.890Z,5.38
2022-10-12T22:15:24.499Z,6.50
2022-10-12T22:18:28.534Z,5.75
2022-10-12T22:21:31.547Z,5.55
2022-10-12T22:24:34.206Z,6.25
2022-10-12T22:27:36.941Z,6.03
2022-10-12T22:30:40.140Z,5.03
2022-10-12T22:33:44.463Z,5.60
2022-10-12T22:36:47.476Z,4.83
2022-10-12T22:39:50.143Z,5.00
2022-10-12T22:42:52.995Z,5.10
2022-10-12T22:45:56.489Z,5.30
2022-10-12T22:49:00.729Z,5.80
2022-10-12T22:52:03.332Z,5.70
2022-10-12T22:55:06.769Z,5.30
2022-10-12T22:58:09.762Z,4.57
2022-10-12T23:01:14.853Z,5.55
2022-10-12T23:04:20.538Z,5.57
2022-10-12T23:07:23.581Z,5.10
2022-10-12T23:10:27.133Z,4.60
2022-10-12T23:13:29.769Z,5.23
2022-10-12T23:16:33.779Z,4.53
2022-10-12T23:19:37.978Z,4.18
2022-10-12T23:22:40.597Z,4.50
2022-10-12T23:25:43.270Z,4.13
2022-10-12T23:28:46.377Z,5.63
2022-10-12T23:31:49.026Z,5.20
2022-10-12T23:34:53.015Z,5.10
2022-10-12T23:37:55.678Z,5.10
2022-10-12T23:40:58.629Z,5.13
2022-10-12T23:44:01.273Z,4.93
2022-10-12T23:47:03.903Z,5.13
2022-10-12T23:50:08.423Z,5.07
2022-10-12T23:53:11.450Z,5.27
2022-10-12T23:56:14.357Z,5.27
2022-10-12T23:59:17.010Z,5.03
